sensor_id;sensor_type;location;lat;lon;timestamp;pressure;altitude;pressure_sealevel;temperature;humidity
56330;BME280;42236;48.058;10.632;2022-12-18T00:02:44;95598.19;;;-5.15;97.08
56330;BME280;42236;48.058;10.632;2022-12-18T00:05:30;95600.38;;;-5.11;96.91
56330;BME280;42236;48.058;10.632;2022-12-18T00:08:16;95596.56;;;-5.16;96.81
56330;BME280;42236;48.058;10.632;2022-12-18T00:11:06;95588.97;;;-5.24;96.86
56330;BME280;42236;48.058;10.632;2022-12-18T00:13:54;95590.09;;;-5.20;97.29
56330;BME280;42236;48.058;10.632;2022-12-18T00:16:43;95591.16;;;-5.21;97.08
56330;BME280;42236;48.058;10.632;2022-12-18T00:19:28;95591.75;;;-5.19;96.96
56330;BME280;42236;48.058;10.632;2022-12-18T00:22:17;95596.56;;;-5.16;97.25
56330;BME280;42236;48.058;10.632;2022-12-18T00:25:03;95604.97;;;-5.07;97.24
56330;BME280;42236;48.058;10.632;2022-12-18T00:27:49;95600.72;;;-5.08;96.76
56330;BME280;42236;48.058;10.632;2022-12-18T00:30:34;95597.28;;;-5.08;96.61
56330;BME280;42236;48.058;10.632;2022-12-18T00:33:20;95604.81;;;-5.12;96.35
56330;BME280;42236;48.058;10.632;2022-12-18T00:36:20;95598.59;;;-5.18;96.64
56330;BME280;42236;48.058;10.632;2022-12-18T00:39:06;95601.88;;;-5.22;96.52
56330;BME280;42236;48.058;10.632;2022-12-18T00:41:52;95603.69;;;-5.23;96.72
56330;BME280;42236;48.058;10.632;2022-12-18T00:44:57;95612.19;;;-5.21;96.75
56330;BME280;42236;48.058;10.632;2022-12-18T00:47:42;95612.19;;;-5.21;96.81
56330;BME280;42236;48.058;10.632;2022-12-18T00:50:28;95608.53;;;-5.20;96.84
56330;BME280;42236;48.058;10.632;2022-12-18T00:53:14;95609.34;;;-5.19;96.90
56330;BME280;42236;48.058;10.632;2022-12-18T00:55:59;95613.63;;;-5.25;96.74
56330;BME280;42236;48.058;10.632;2022-12-18T00:58:45;95626.03;;;-5.32;96.86
56330;BME280;42236;48.058;10.632;2022-12-18T01:01:31;95628.06;;;-5.34;97.06
56330;BME280;42236;48.058;10.632;2022-12-18T01:04:17;95624.28;;;-5.38;97.41
56330;BME280;42236;48.058;10.632;2022-12-18T01:07:03;95635.59;;;-5.38;97.48
56330;BME280;42236;48.058;10.632;2022-12-18T01:09:49;95636.78;;;-5.33;97.33
56330;BME280;42236;48.058;10.632;2022-12-18T01:12:35;95635.97;;;-5.34;97.49
56330;BME280;42236;48.058;10.632;2022-12-18T01:15:20;95632.91;;;-5.31;97.49
56330;BME280;42236;48.058;10.632;2022-12-18T01:18:06;95637.31;;;-5.25;97.62
56330;BME280;42236;48.058;10.632;2022-12-18T01:20:52;95629.00;;;-5.22;97.33
56330;BME280;42236;48.058;10.632;2022-12-18T01:23:37;95638.03;;;-5.18;97.10
56330;BME280;42236;48.058;10.632;2022-12-18T01:26:24;95638.63;;;-5.16;96.95
56330;BME280;42236;48.058;10.632;2022-12-18T01:29:10;95641.13;;;-5.21;96.86
56330;BME280;42236;48.058;10.632;2022-12-18T01:31:56;95653.66;;;-5.23;96.98
56330;BME280;42236;48.058;10.632;2022-12-18T01:34:42;95654.69;;;-5.24;96.95
56330;BME280;42236;48.058;10.632;2022-12-18T01:37:27;95652.28;;;-5.25;97.23
56330;BME280;42236;48.058;10.632;2022-12-18T01:40:13;95658.34;;;-5.25;97.27
56330;BME280;42236;48.058;10.632;2022-12-18T01:42:58;95651.84;;;-5.22;97.43
56330;BME280;42236;48.058;10.632;2022-12-18T01:45:44;95660.91;;;-5.18;97.01
56330;BME280;42236;48.058;10.632;2022-12-18T01:48:30;95667.13;;;-5.12;97.07
56330;BME280;42236;48.058;10.632;2022-12-18T01:51:16;95657.63;;;-5.13;96.63
56330;BME280;42236;48.058;10.632;2022-12-18T01:54:02;95647.97;;;-5.20;96.25
56330;BME280;42236;48.058;10.632;2022-12-18T01:56:48;95656.91;;;-5.21;96.80
56330;BME280;42236;48.058;10.632;2022-12-18T01:59:34;95648.81;;;-5.19;96.65
56330;BME280;42236;48.058;10.632;2022-12-18T02:02:21;95663.75;;;-5.20;96.90
56330;BME280;42236;48.058;10.632;2022-12-18T02:05:07;95659.53;;;-5.21;96.67
56330;BME280;42236;48.058;10.632;2022-12-18T02:08:01;95660.31;;;-5.20;96.63
56330;BME280;42236;48.058;10.632;2022-12-18T02:11:05;95656.09;;;-5.21;96.52
56330;BME280;42236;48.058;10.632;2022-12-18T02:16:45;95655.34;;;-5.28;96.92
56330;BME280;42236;48.058;10.632;2022-12-18T02:22:44;95661.84;;;-5.31;96.94
56330;BME280;42236;48.058;10.632;2022-12-18T02:26:02;95656.16;;;-5.28;96.96
56330;BME280;42236;48.058;10.632;2022-12-18T02:28:56;95653.72;;;-5.29;96.56
56330;BME280;42236;48.058;10.632;2022-12-18T02:31:49;95647.66;;;-5.30;96.71
56330;BME280;42236;48.058;10.632;2022-12-18T02:34:38;95641.59;;;-5.30;96.79
56330;BME280;42236;48.058;10.632;2022-12-18T02:37:27;95647.66;;;-5.30;96.78
56330;BME280;42236;48.058;10.632;2022-12-18T02:40:14;95644.88;;;-5.35;96.62
56330;BME280;42236;48.058;10.632;2022-12-18T02:43:09;95646.47;;;-5.34;96.65
56330;BME280;42236;48.058;10.632;2022-12-18T02:45:59;95647.94;;;-5.38;96.59
56330;BME280;42236;48.058;10.632;2022-12-18T02:48:46;95651.81;;;-5.41;96.62
56330;BME280;42236;48.058;10.632;2022-12-18T02:51:52;95651.66;;;-5.46;96.48
56330;BME280;42236;48.058;10.632;2022-12-18T02:57:56;95642.63;;;-5.57;96.73
56330;BME280;42236;48.058;10.632;2022-12-18T03:01:03;95642.25;;;-5.60;96.60
56330;BME280;42236;48.058;10.632;2022-12-18T03:03:57;95637.59;;;-5.58;96.85
56330;BME280;42236;48.058;10.632;2022-12-18T03:06:48;95639.47;;;-5.65;96.80
56330;BME280;42236;48.058;10.632;2022-12-18T03:09:37;95632.16;;;-5.63;97.24
56330;BME280;42236;48.058;10.632;2022-12-18T03:12:30;95632.59;;;-5.66;97.08
56330;BME280;42236;48.058;10.632;2022-12-18T03:15:22;95630.75;;;-5.66;97.13
56330;BME280;42236;48.058;10.632;2022-12-18T03:18:13;95641.91;;;-5.70;97.12
56330;BME280;42236;48.058;10.632;2022-12-18T03:21:05;95645.72;;;-5.66;97.35
56330;BME280;42236;48.058;10.632;2022-12-18T03:23:52;95657.19;;;-5.61;97.31
56330;BME280;42236;48.058;10.632;2022-12-18T03:26:44;95665.28;;;-5.55;97.26
56330;BME280;42236;48.058;10.632;2022-12-18T03:29:38;95660.66;;;-5.60;97.09
56330;BME280;42236;48.058;10.632;2022-12-18T03:32:29;95661.69;;;-5.68;96.58
56330;BME280;42236;48.058;10.632;2022-12-18T03:35:24;95660.53;;;-5.72;97.01
56330;BME280;42236;48.058;10.632;2022-12-18T03:38:12;95648.84;;;-5.76;97.08
56330;BME280;42236;48.058;10.632;2022-12-18T03:44:05;95660.16;;;-5.75;97.36
56330;BME280;42236;48.058;10.632;2022-12-18T03:50:25;95673.88;;;-5.73;97.10
56330;BME280;42236;48.058;10.632;2022-12-18T03:56:08;95678.50;;;-5.69;97.07
56330;BME280;42236;48.058;10.632;2022-12-18T03:58:56;95675.28;;;-5.71;96.94
56330;BME280;42236;48.058;10.632;2022-12-18T04:01:47;95674.84;;;-5.68;96.80
56330;BME280;42236;48.058;10.632;2022-12-18T04:04:35;95671.81;;;-5.65;96.84
56330;BME280;42236;48.058;10.632;2022-12-18T04:07:23;95679.09;;;-5.67;96.55
56330;BME280;42236;48.058;10.632;2022-12-18T04:10:13;95671.41;;;-5.68;96.69
56330;BME280;42236;48.058;10.632;2022-12-18T04:13:00;95686.97;;;-5.67;96.42
56330;BME280;42236;48.058;10.632;2022-12-18T04:15:45;95690.81;;;-5.63;96.57
56330;BME280;42236;48.058;10.632;2022-12-18T04:18:31;95680.28;;;-5.63;96.14
56330;BME280;42236;48.058;10.632;2022-12-18T04:21:16;95666.31;;;-5.63;96.39
56330;BME280;42236;48.058;10.632;2022-12-18T04:24:02;95680.22;;;-5.56;96.50
56330;BME280;42236;48.058;10.632;2022-12-18T04:26:48;95689.94;;;-5.57;96.22
56330;BME280;42236;48.058;10.632;2022-12-18T04:29:33;95691.56;;;-5.55;95.88
56330;BME280;42236;48.058;10.632;2022-12-18T04:32:19;95687.53;;;-5.58;95.98
56330;BME280;42236;48.058;10.632;2022-12-18T04:35:05;95676.19;;;-5.59;96.14
56330;BME280;42236;48.058;10.632;2022-12-18T04:37:55;95666.56;;;-5.65;96.07
56330;BME280;42236;48.058;10.632;2022-12-18T04:40:41;95671.22;;;-5.67;96.23
56330;BME280;42236;48.058;10.632;2022-12-18T04:43:27;95680.69;;;-5.66;96.02
56330;BME280;42236;48.058;10.632;2022-12-18T04:46:12;95671.00;;;-5.65;96.09
56330;BME280;42236;48.058;10.632;2022-12-18T04:48:58;95674.47;;;-5.71;96.03
56330;BME280;42236;48.058;10.632;2022-12-18T04:51:44;95684.78;;;-5.70;96.52
56330;BME280;42236;48.058;10.632;2022-12-18T04:54:30;95690.84;;;-5.69;96.46
56330;BME280;42236;48.058;10.632;2022-12-18T04:57:15;95695.66;;;-5.66;96.50
56330;BME280;42236;48.058;10.632;2022-12-18T05:00:01;95691.69;;;-5.75;96.07
56330;BME280;42236;48.058;10.632;2022-12-18T05:02:47;95700.38;;;-5.75;96.26
56330;BME280;42236;48.058;10.632;2022-12-18T05:05:34;95697.97;;;-5.76;96.57
56330;BME280;42236;48.058;10.632;2022-12-18T05:08:20;95699.34;;;-5.74;96.49
56330;BME280;42236;48.058;10.632;2022-12-18T05:11:12;95707.50;;;-5.82;96.32
56330;BME280;42236;48.058;10.632;2022-12-18T05:14:00;95713.56;;;-5.82;96.58
56330;BME280;42236;48.058;10.632;2022-12-18T05:16:46;95717.75;;;-5.74;96.84
56330;BME280;42236;48.058;10.632;2022-12-18T05:19:32;95715.28;;;-5.69;96.79
56330;BME280;42236;48.058;10.632;2022-12-18T05:22:17;95713.88;;;-5.65;96.28
56330;BME280;42236;48.058;10.632;2022-12-18T05:25:03;95725.53;;;-5.61;96.30
56330;BME280;42236;48.058;10.632;2022-12-18T05:27:49;95736.25;;;-5.55;96.19
56330;BME280;42236;48.058;10.632;2022-12-18T05:30:35;95748.56;;;-5.56;96.17
56330;BME280;42236;48.058;10.632;2022-12-18T05:33:22;95742.94;;;-5.60;95.90
56330;BME280;42236;48.058;10.632;2022-12-18T05:36:09;95739.75;;;-5.68;96.09
56330;BME280;42236;48.058;10.632;2022-12-18T05:38:55;95736.56;;;-5.77;96.30
56330;BME280;42236;48.058;10.632;2022-12-18T05:41:40;95733.81;;;-5.89;96.77
56330;BME280;42236;48.058;10.632;2022-12-18T05:44:26;95728.75;;;-5.90;96.90
56330;BME280;42236;48.058;10.632;2022-12-18T05:47:12;95731.78;;;-5.87;97.22
56330;BME280;42236;48.058;10.632;2022-12-18T05:49:57;95729.91;;;-5.80;97.07
56330;BME280;42236;48.058;10.632;2022-12-18T05:52:43;95723.00;;;-5.74;96.98
56330;BME280;42236;48.058;10.632;2022-12-18T05:55:29;95723.00;;;-5.74;96.64
56330;BME280;42236;48.058;10.632;2022-12-18T05:58:15;95728.69;;;-5.77;96.48
56330;BME280;42236;48.058;10.632;2022-12-18T06:01:16;95736.97;;;-5.80;96.73
56330;BME280;42236;48.058;10.632;2022-12-18T06:04:02;95733.78;;;-5.82;96.68
56330;BME280;42236;48.058;10.632;2022-12-18T06:06:48;95736.81;;;-5.85;96.54
56330;BME280;42236;48.058;10.632;2022-12-18T06:09:34;95742.84;;;-5.85;96.56
56330;BME280;42236;48.058;10.632;2022-12-18T06:12:19;95737.03;;;-5.87;96.90
56330;BME280;42236;48.058;10.632;2022-12-18T06:15:05;95742.31;;;-5.93;97.03
56330;BME280;42236;48.058;10.632;2022-12-18T06:17:51;95741.53;;;-5.94;97.42
56330;BME280;42236;48.058;10.632;2022-12-18T06:20:37;95741.53;;;-5.94;97.27
56330;BME280;42236;48.058;10.632;2022-12-18T06:23:25;95747.56;;;-5.93;97.18
56330;BME280;42236;48.058;10.632;2022-12-18T06:26:12;95747.13;;;-5.90;97.14
56330;BME280;42236;48.058;10.632;2022-12-18T06:28:58;95738.63;;;-5.86;97.05
56330;BME280;42236;48.058;10.632;2022-12-18T06:31:43;95745.13;;;-5.88;96.96
56330;BME280;42236;48.058;10.632;2022-12-18T06:34:32;95760.25;;;-5.84;96.97
56330;BME280;42236;48.058;10.632;2022-12-18T06:37:18;95759.66;;;-5.86;96.65
56330;BME280;42236;48.058;10.632;2022-12-18T06:40:04;95767.72;;;-5.87;96.56
56330;BME280;42236;48.058;10.632;2022-12-18T06:42:50;95777.84;;;-5.84;96.79
56330;BME280;42236;48.058;10.632;2022-12-18T06:45:36;95769.09;;;-5.78;96.51
56330;BME280;42236;48.058;10.632;2022-12-18T06:48:21;95772.59;;;-5.84;96.37
56330;BME280;42236;48.058;10.632;2022-12-18T06:51:07;95779.00;;;-5.80;96.66
56330;BME280;42236;48.058;10.632;2022-12-18T06:53:53;95774.78;;;-5.81;96.30
56330;BME280;42236;48.058;10.632;2022-12-18T06:56:38;95770.97;;;-5.85;96.23
56330;BME280;42236;48.058;10.632;2022-12-18T06:59:24;95770.59;;;-5.89;96.26
56330;BME280;42236;48.058;10.632;2022-12-18T07:02:13;95766.97;;;-5.94;96.07
56330;BME280;42236;48.058;10.632;2022-12-18T07:04:58;95777.13;;;-5.98;96.44
56330;BME280;42236;48.058;10.632;2022-12-18T07:07:44;95789.28;;;-6.04;96.60
56330;BME280;42236;48.058;10.632;2022-12-18T07:10:29;95785.00;;;-6.05;96.69
56330;BME280;42236;48.058;10.632;2022-12-18T07:13:16;95790.88;;;-6.03;96.71
56330;BME280;42236;48.058;10.632;2022-12-18T07:16:08;95777.53;;;-6.01;96.79
56330;BME280;42236;48.058;10.632;2022-12-18T07:18:55;95778.94;;;-5.98;96.53
56330;BME280;42236;48.058;10.632;2022-12-18T07:21:41;95777.91;;;-5.97;96.48
56330;BME280;42236;48.058;10.632;2022-12-18T07:24:26;95775.88;;;-5.95;96.56
56330;BME280;42236;48.058;10.632;2022-12-18T07:27:12;95788.00;;;-5.94;96.50
56330;BME280;42236;48.058;10.632;2022-12-18T07:29:57;95796.31;;;-5.97;96.56
56330;BME280;42236;48.058;10.632;2022-12-18T07:32:43;95801.97;;;-5.94;96.44
56330;BME280;42236;48.058;10.632;2022-12-18T07:35:29;95804.78;;;-5.95;96.57
56330;BME280;42236;48.058;10.632;2022-12-18T07:38:14;95799.53;;;-5.95;96.57
56330;BME280;42236;48.058;10.632;2022-12-18T07:41:11;95804.94;;;-5.90;96.53
56330;BME280;42236;48.058;10.632;2022-12-18T07:43:57;95803.09;;;-5.83;96.35
56330;BME280;42236;48.058;10.632;2022-12-18T07:46:43;95811.94;;;-5.78;96.07
56330;BME280;42236;48.058;10.632;2022-12-18T07:49:28;95802.88;;;-5.75;95.84
56330;BME280;42236;48.058;10.632;2022-12-18T07:52:14;95811.75;;;-5.76;95.61
56330;BME280;42236;48.058;10.632;2022-12-18T07:55:00;95809.31;;;-5.78;95.72
56330;BME280;42236;48.058;10.632;2022-12-18T07:57:46;95820.25;;;-5.74;95.81
56330;BME280;42236;48.058;10.632;2022-12-18T08:00:31;95826.28;;;-5.67;95.88
56330;BME280;42236;48.058;10.632;2022-12-18T08:03:18;95825.03;;;-5.58;95.82
56330;BME280;42236;48.058;10.632;2022-12-18T08:06:06;95833.69;;;-5.50;95.39
56330;BME280;42236;48.058;10.632;2022-12-18T08:08:53;95838.31;;;-5.46;95.13
56330;BME280;42236;48.058;10.632;2022-12-18T08:11:39;95840.69;;;-5.38;95.08
56330;BME280;42236;48.058;10.632;2022-12-18T08:14:25;95835.81;;;-5.34;94.70
56330;BME280;42236;48.058;10.632;2022-12-18T08:17:10;95836.63;;;-5.33;94.30
56330;BME280;42236;48.058;10.632;2022-12-18T08:19:56;95847.94;;;-5.33;93.98
56330;BME280;42236;48.058;10.632;2022-12-18T08:22:42;95850.41;;;-5.38;93.65
56330;BME280;42236;48.058;10.632;2022-12-18T08:25:27;95842.34;;;-5.43;93.55
56330;BME280;42236;48.058;10.632;2022-12-18T08:28:17;95839.53;;;-5.48;93.65
56330;BME280;42236;48.058;10.632;2022-12-18T08:31:03;95828.44;;;-5.50;93.81
56330;BME280;42236;48.058;10.632;2022-12-18T08:33:50;95828.19;;;-5.49;94.01
56330;BME280;42236;48.058;10.632;2022-12-18T08:36:36;95832.59;;;-5.36;94.29
56330;BME280;42236;48.058;10.632;2022-12-18T08:39:22;95822.03;;;-5.29;93.76
56330;BME280;42236;48.058;10.632;2022-12-18T08:42:08;95826.06;;;-5.27;92.77
56330;BME280;42236;48.058;10.632;2022-12-18T08:45:12;95829.13;;;-5.30;92.52
56330;BME280;42236;48.058;10.632;2022-12-18T08:47:57;95830.13;;;-5.24;92.53
56330;BME280;42236;48.058;10.632;2022-12-18T08:50:43;95827.22;;;-5.16;92.63
56330;BME280;42236;48.058;10.632;2022-12-18T08:53:29;95826.16;;;-5.08;92.86
56330;BME280;42236;48.058;10.632;2022-12-18T08:56:14;95836.41;;;-5.00;92.66
56330;BME280;42236;48.058;10.632;2022-12-18T08:59:00;95833.44;;;-5.10;91.75
56330;BME280;42236;48.058;10.632;2022-12-18T09:01:47;95835.72;;;-5.14;91.93
56330;BME280;42236;48.058;10.632;2022-12-18T09:04:32;95834.03;;;-5.08;92.28
56330;BME280;42236;48.058;10.632;2022-12-18T09:07:18;95833.78;;;-5.00;92.44
56330;BME280;42236;48.058;10.632;2022-12-18T09:10:04;95832.34;;;-4.96;92.55
56330;BME280;42236;48.058;10.632;2022-12-18T09:12:50;95844.53;;;-5.02;92.16
56330;BME280;42236;48.058;10.632;2022-12-18T09:15:47;95835.25;;;-5.04;91.93
56330;BME280;42236;48.058;10.632;2022-12-18T09:18:33;95845.72;;;-4.98;92.24
56330;BME280;42236;48.058;10.632;2022-12-18T09:21:20;95838.84;;;-4.99;92.27
56330;BME280;42236;48.058;10.632;2022-12-18T09:24:08;95846.09;;;-4.94;92.17
56330;BME280;42236;48.058;10.632;2022-12-18T09:26:57;95841.59;;;-4.87;91.73
56330;BME280;42236;48.058;10.632;2022-12-18T09:29:42;95846.03;;;-4.81;91.57
56330;BME280;42236;48.058;10.632;2022-12-18T09:32:28;95844.38;;;-4.82;91.55
56330;BME280;42236;48.058;10.632;2022-12-18T09:35:14;95831.97;;;-4.75;91.27
56330;BME280;42236;48.058;10.632;2022-12-18T09:37:59;95837.41;;;-4.69;91.52
56330;BME280;42236;48.058;10.632;2022-12-18T09:40:48;95835.22;;;-4.73;91.11
56330;BME280;42236;48.058;10.632;2022-12-18T09:43:37;95834.41;;;-4.73;91.24
56330;BME280;42236;48.058;10.632;2022-12-18T09:46:30;95837.09;;;-4.80;90.58
56330;BME280;42236;48.058;10.632;2022-12-18T09:49:18;95840.91;;;-4.76;91.12
56330;BME280;42236;48.058;10.632;2022-12-18T09:55:05;95839.78;;;-4.61;91.10
56330;BME280;42236;48.058;10.632;2022-12-18T09:58:14;95834.09;;;-4.58;90.02
56330;BME280;42236;48.058;10.632;2022-12-18T10:01:00;95830.38;;;-4.51;91.27
56330;BME280;42236;48.058;10.632;2022-12-18T10:03:47;95817.66;;;-4.35;90.86
56330;BME280;42236;48.058;10.632;2022-12-18T10:06:46;95810.16;;;-4.32;89.58
56330;BME280;42236;48.058;10.632;2022-12-18T10:09:37;95813.53;;;-4.24;90.25
56330;BME280;42236;48.058;10.632;2022-12-18T10:12:45;95812.50;;;-4.23;88.77
56330;BME280;42236;48.058;10.632;2022-12-18T10:15:53;95810.88;;;-4.24;88.47
56330;BME280;42236;48.058;10.632;2022-12-18T10:19:04;95819.75;;;-4.19;88.67
56330;BME280;42236;48.058;10.632;2022-12-18T10:22:07;95823.91;;;-4.11;88.79
56330;BME280;42236;48.058;10.632;2022-12-18T10:28:10;95804.88;;;-4.13;88.71
56330;BME280;42236;48.058;10.632;2022-12-18T10:30:57;95810.09;;;-4.07;88.67
56330;BME280;42236;48.058;10.632;2022-12-18T10:33:43;95814.50;;;-4.00;88.88
56330;BME280;42236;48.058;10.632;2022-12-18T10:36:29;95810.47;;;-4.03;88.38
56330;BME280;42236;48.058;10.632;2022-12-18T10:39:18;95814.03;;;-3.97;88.91
56330;BME280;42236;48.058;10.632;2022-12-18T10:42:18;95818.38;;;-4.03;87.60
56330;BME280;42236;48.058;10.632;2022-12-18T10:47:54;95819.69;;;-3.94;88.71
56330;BME280;42236;48.058;10.632;2022-12-18T10:50:40;95812.66;;;-3.81;88.41
56330;BME280;42236;48.058;10.632;2022-12-18T10:53:33;95800.78;;;-3.72;88.09
56330;BME280;42236;48.058;10.632;2022-12-18T10:56:20;95805.53;;;-3.62;88.31
56330;BME280;42236;48.058;10.632;2022-12-18T10:59:08;95801.94;;;-3.50;88.39
56330;BME280;42236;48.058;10.632;2022-12-18T11:01:58;95800.81;;;-3.42;88.07
56330;BME280;42236;48.058;10.632;2022-12-18T11:04:51;95811.69;;;-3.38;87.26
56330;BME280;42236;48.058;10.632;2022-12-18T11:07:48;95810.38;;;-3.29;87.08
56330;BME280;42236;48.058;10.632;2022-12-18T11:10:37;95814.06;;;-3.30;86.87
56330;BME280;42236;48.058;10.632;2022-12-18T11:13:26;95816.81;;;-3.25;86.92
56330;BME280;42236;48.058;10.632;2022-12-18T11:16:18;95812.72;;;-3.21;87.37
56330;BME280;42236;48.058;10.632;2022-12-18T11:19:19;95811.09;;;-3.22;87.21
56330;BME280;42236;48.058;10.632;2022-12-18T11:22:27;95808.44;;;-3.22;86.78
56330;BME280;42236;48.058;10.632;2022-12-18T11:25:18;95806.75;;;-3.47;85.35
56330;BME280;42236;48.058;10.632;2022-12-18T11:31:28;95803.56;;;-3.67;87.63
56330;BME280;42236;48.058;10.632;2022-12-18T11:34:30;95807.16;;;-3.61;87.30
56330;BME280;42236;48.058;10.632;2022-12-18T11:37:17;95813.13;;;-3.54;87.78
56330;BME280;42236;48.058;10.632;2022-12-18T11:40:16;95810.56;;;-3.42;88.37
56330;BME280;42236;48.058;10.632;2022-12-18T11:43:10;95802.78;;;-3.37;87.99
56330;BME280;42236;48.058;10.632;2022-12-18T11:46:04;95801.06;;;-3.32;87.23
56330;BME280;42236;48.058;10.632;2022-12-18T11:48:59;95806.72;;;-3.28;87.68
56330;BME280;42236;48.058;10.632;2022-12-18T11:51:57;95807.34;;;-3.45;87.58
56330;BME280;42236;48.058;10.632;2022-12-18T11:54:50;95814.38;;;-3.57;88.19
56330;BME280;42236;48.058;10.632;2022-12-18T11:57:46;95799.16;;;-3.73;88.00
56330;BME280;42236;48.058;10.632;2022-12-18T12:00:36;95795.66;;;-3.67;87.98
56330;BME280;42236;48.058;10.632;2022-12-18T12:03:44;95795.34;;;-3.59;88.30
56330;BME280;42236;48.058;10.632;2022-12-18T12:10:10;95781.47;;;-3.24;87.36
56330;BME280;42236;48.058;10.632;2022-12-18T12:13:23;95775.31;;;-3.18;86.41
56330;BME280;42236;48.058;10.632;2022-12-18T12:19:10;95777.09;;;-2.88;87.00
56330;BME280;42236;48.058;10.632;2022-12-18T12:25:07;95771.47;;;-2.68;86.09
56330;BME280;42236;48.058;10.632;2022-12-18T12:49:51;95757.50;;;-3.23;87.47
56330;BME280;42236;48.058;10.632;2022-12-18T13:00:11;95742.84;;;-3.18;87.00
56330;BME280;42236;48.058;10.632;2022-12-18T13:04:08;95747.25;;;-3.42;85.36
56330;BME280;42236;48.058;10.632;2022-12-18T13:06:35;95745.81;;;-3.57;86.29
56330;BME280;42236;48.058;10.632;2022-12-18T13:09:23;95747.06;;;-3.59;87.98
56330;BME280;42236;48.058;10.632;2022-12-18T13:12:11;95748.59;;;-3.52;88.37
56330;BME280;42236;48.058;10.632;2022-12-18T13:15:22;95750.91;;;-3.44;87.88
56330;BME280;42236;48.058;10.632;2022-12-18T13:23:40;95744.06;;;-3.93;88.48
56330;BME280;42236;48.058;10.632;2022-12-18T13:29:41;95749.53;;;-3.95;88.98
56330;BME280;42236;48.058;10.632;2022-12-18T13:32:27;95753.75;;;-4.05;88.71
56330;BME280;42236;48.058;10.632;2022-12-18T13:38:32;95748.38;;;-3.99;89.36
56330;BME280;42236;48.058;10.632;2022-12-18T13:44:45;95762.19;;;-3.67;89.03
56330;BME280;42236;48.058;10.632;2022-12-18T13:47:33;95765.75;;;-3.61;88.79
56330;BME280;42236;48.058;10.632;2022-12-18T13:50:26;95764.16;;;-3.62;88.67
56330;BME280;42236;48.058;10.632;2022-12-18T13:53:21;95763.91;;;-3.91;88.67
56330;BME280;42236;48.058;10.632;2022-12-18T13:56:08;95765.50;;;-3.90;89.23
56330;BME280;42236;48.058;10.632;2022-12-18T13:59:10;95770.63;;;-3.95;88.88
56330;BME280;42236;48.058;10.632;2022-12-18T14:01:59;95776.28;;;-3.91;89.50
56330;BME280;42236;48.058;10.632;2022-12-18T14:04:47;95774.16;;;-4.01;89.61
56330;BME280;42236;48.058;10.632;2022-12-18T14:07:33;95777.66;;;-4.07;89.97
56330;BME280;42236;48.058;10.632;2022-12-18T14:10:19;95778.97;;;-4.16;89.69
56330;BME280;42236;48.058;10.632;2022-12-18T14:13:08;95776.41;;;-4.23;90.40
56330;BME280;42236;48.058;10.632;2022-12-18T14:15:55;95772.91;;;-4.17;90.35
56330;BME280;42236;48.058;10.632;2022-12-18T14:18:48;95761.56;;;-4.17;90.43
56330;BME280;42236;48.058;10.632;2022-12-18T14:21:36;95764.66;;;-4.20;90.31
56330;BME280;42236;48.058;10.632;2022-12-18T14:24:22;95761.44;;;-4.22;90.50
56330;BME280;42236;48.058;10.632;2022-12-18T14:27:25;95766.91;;;-4.24;90.44
56330;BME280;42236;48.058;10.632;2022-12-18T14:30:40;95770.19;;;-4.29;90.65
56330;BME280;42236;48.058;10.632;2022-12-18T14:33:27;95764.56;;;-4.32;91.02
56330;BME280;42236;48.058;10.632;2022-12-18T14:36:31;95764.19;;;-4.36;91.26
56330;BME280;42236;48.058;10.632;2022-12-18T14:39:17;95764.78;;;-4.34;90.95
56330;BME280;42236;48.058;10.632;2022-12-18T14:42:02;95770.50;;;-4.37;91.27
56330;BME280;42236;48.058;10.632;2022-12-18T14:44:48;95769.31;;;-4.41;91.22
56330;BME280;42236;48.058;10.632;2022-12-18T14:47:34;95775.22;;;-4.45;91.36
56330;BME280;42236;48.058;10.632;2022-12-18T14:50:19;95776.91;;;-4.51;91.76
56330;BME280;42236;48.058;10.632;2022-12-18T14:53:33;95779.44;;;-4.63;91.51
56330;BME280;42236;48.058;10.632;2022-12-18T14:56:21;95775.13;;;-4.57;92.11
56330;BME280;42236;48.058;10.632;2022-12-18T15:02:26;95779.94;;;-4.73;91.58
56330;BME280;42236;48.058;10.632;2022-12-18T15:08:00;95782.66;;;-4.86;92.58
56330;BME280;42236;48.058;10.632;2022-12-18T15:10:47;95786.97;;;-4.91;92.81
56330;BME280;42236;48.058;10.632;2022-12-18T15:13:33;95782.00;;;-5.00;93.16
56330;BME280;42236;48.058;10.632;2022-12-18T15:16:19;95785.03;;;-5.03;93.07
56330;BME280;42236;48.058;10.632;2022-12-18T15:19:07;95774.94;;;-5.06;93.18
56330;BME280;42236;48.058;10.632;2022-12-18T15:21:53;95777.97;;;-5.02;93.33
56330;BME280;42236;48.058;10.632;2022-12-18T15:24:38;95778.16;;;-5.04;93.40
56330;BME280;42236;48.058;10.632;2022-12-18T15:27:35;95779.41;;;-5.06;93.51
56330;BME280;42236;48.058;10.632;2022-12-18T15:30:24;95777.38;;;-5.04;93.58
56330;BME280;42236;48.058;10.632;2022-12-18T15:33:23;95763.19;;;-5.03;93.54
56330;BME280;42236;48.058;10.632;2022-12-18T15:36:12;95768.00;;;-5.00;93.32
56330;BME280;42236;48.058;10.632;2022-12-18T15:38:58;95758.66;;;-4.96;93.36
56330;BME280;42236;48.058;10.632;2022-12-18T15:41:44;95759.06;;;-4.93;93.17
56330;BME280;42236;48.058;10.632;2022-12-18T15:44:49;95761.31;;;-4.96;93.38
56330;BME280;42236;48.058;10.632;2022-12-18T15:47:35;95770.00;;;-4.96;93.07
56330;BME280;42236;48.058;10.632;2022-12-18T15:50:21;95765.38;;;-5.00;93.22
56330;BME280;42236;48.058;10.632;2022-12-18T15:53:08;95766.84;;;-5.04;93.11
56330;BME280;42236;48.058;10.632;2022-12-18T15:55:54;95766.44;;;-5.08;93.25
56330;BME280;42236;48.058;10.632;2022-12-18T15:58:59;95773.81;;;-5.17;92.98
56330;BME280;42236;48.058;10.632;2022-12-18T16:01:47;95774.13;;;-5.31;93.27
56330;BME280;42236;48.058;10.632;2022-12-18T16:04:32;95777.16;;;-5.34;93.45
56330;BME280;42236;48.058;10.632;2022-12-18T16:07:18;95784.88;;;-5.40;93.34
56330;BME280;42236;48.058;10.632;2022-12-18T16:10:04;95785.31;;;-5.43;93.77
56330;BME280;42236;48.058;10.632;2022-12-18T16:12:50;95790.13;;;-5.40;93.59
56330;BME280;42236;48.058;10.632;2022-12-18T16:15:36;95783.66;;;-5.37;93.60
56330;BME280;42236;48.058;10.632;2022-12-18T16:18:21;95778.97;;;-5.35;93.83